Time;durP1;ratioP1;P1;durP2;ratioP2;P2;SDS_P1;SDS_P2;PMS_P1;PMS_P2;Temp;Humidity;BMP_temperature;BMP_pressure;BME280_temperature;BME280_humidity;BME280_pressure;Samples;Min_cycle;Max_cycle;Signal;HPM_P1;HPM_P2
2022/06/13 00:00:07;;;;;;;;;;;;;;;22.67;56.87;99963.44;2076855;28;19913;-45
2022/06/13 00:01:11;;;;;;;;;;;;;;;22.67;57.01;99968.06;2071952;28;19928;-45
2022/06/13 00:02:12;;;;;;;;;;;;;;;22.67;57.08;99971.66;2072130;28;19924;-45
2022/06/13 00:03:12;;;;;;;;;;;;;;;22.68;56.96;99964.28;2077364;28;19920;-46
2022/06/13 00:04:12;;;;;;;;;;;;;;;22.67;56.85;99968.94;2084749;28;20617;-45
2022/06/13 00:05:13;;;;;;;;;;;;;;;22.67;56.86;99973.56;2083930;28;20353;-45
2022/06/13 00:06:14;;;;;;;;;;;;;;;22.66;56.81;99966.34;2083548;28;19920;-45
2022/06/13 00:07:14;;;;;;;;;;;;;;;22.66;57.18;99964.47;2086122;28;19916;-45
2022/06/13 00:08:14;;;;;;;;;;;;;;;22.67;57.20;99968.94;2083154;28;20755;-44
2022/06/13 00:09:15;;;;;;;;;;;;;;;22.65;57.34;99960.00;2083755;28;20319;-45
2022/06/13 00:10:15;;;;;;;;;;;;;;;22.64;57.55;99966.53;2083723;28;20031;-46
2022/06/13 00:11:19;;;;;;;;;;;;;;;22.66;57.56;99961.72;2086310;28;19920;-45
2022/06/13 00:12:19;;;;;;;;;;;;;;;22.65;57.47;99957.25;2084595;28;19923;-45
2022/06/13 00:13:19;;;;;;;;;;;;;;;22.64;57.58;99955.53;2084506;28;19950;-45
2022/06/13 00:14:19;;;;;;;;;;;;;;;22.64;57.32;99958.28;2085079;28;19986;-45
2022/06/13 00:15:20;;;;;;;;;;;;;;;22.64;57.45;99958.28;2084109;28;19965;-44
2022/06/13 00:16:20;;;;;;;;;;;;;;;22.64;57.44;99952.81;2077176;28;20341;-45
2022/06/13 00:17:21;;;;;;;;;;;;;;;22.63;57.51;99956.56;2070359;28;19959;-45
2022/06/13 00:18:21;;;;;;;;;;;;;;;22.65;57.40;99961.91;2075184;28;19908;-44
2022/06/13 00:19:21;;;;;;;;;;;;;;;22.64;57.52;99958.28;2068359;28;19928;-45
2022/06/13 00:20:22;;;;;;;;;;;;;;;22.64;57.37;99966.53;2075998;28;19928;-45
2022/06/13 00:21:32;;;;;;;;;;;;;;;22.66;57.33;99966.34;2077453;28;19916;-45
2022/06/13 00:22:33;;;;;;;;;;;;;;;22.65;57.30;99962.75;2083738;28;19904;-46
2022/06/13 00:23:35;;;;;;;;;;;;;;;22.65;57.39;99960.00;2082883;28;19931;-45
2022/06/13 00:24:36;;;;;;;;;;;;;;;22.65;57.22;99968.25;2084824;28;19916;-46
2022/06/13 00:25:36;;;;;;;;;;;;;;;22.65;57.39;99965.50;2082152;28;19916;-47
2022/06/13 00:26:37;;;;;;;;;;;;;;;22.65;57.23;99968.25;2084573;28;20105;-46
2022/06/13 00:27:38;;;;;;;;;;;;;;;22.66;57.25;99972.72;2085124;28;20349;-46
2022/06/13 00:28:38;;;;;;;;;;;;;;;22.66;57.20;99969.97;2082902;28;20527;-45
2022/06/13 00:29:39;;;;;;;;;;;;;;;22.66;57.12;99967.22;2085005;28;20036;-45
2022/06/13 00:30:40;;;;;;;;;;;;;;;22.65;57.08;99970.97;2083914;28;19931;-45
2022/06/13 00:31:41;;;;;;;;;;;;;;;22.67;57.12;99974.41;2084619;28;19916;-46
2022/06/13 00:32:41;;;;;;;;;;;;;;;22.66;57.11;99967.22;2084627;28;20846;-45
2022/06/13 00:33:41;;;;;;;;;;;;;;;22.67;57.01;99965.31;2083108;28;19912;-45
2022/06/13 00:34:42;;;;;;;;;;;;;;;22.67;57.06;99968.94;2085180;28;19978;-45
2022/06/13 00:35:42;;;;;;;;;;;;;;;22.67;56.92;99966.19;2088587;28;19916;-45
2022/06/13 00:36:42;;;;;;;;;;;;;;;22.67;57.05;99970.81;2084718;28;19919;-46
2022/06/13 00:37:42;;;;;;;;;;;;;;;22.67;57.09;99968.94;2092033;28;19923;-47
2022/06/13 00:38:43;;;;;;;;;;;;;;;22.66;57.03;99972.72;2086648;28;19922;-46
2022/06/13 00:39:43;;;;;;;;;;;;;;;22.67;57.13;99968.94;2087107;28;19916;-48
2022/06/13 00:40:44;;;;;;;;;;;;;;;22.67;56.98;99971.66;2091327;28;19915;-47
2022/06/13 00:41:44;;;;;;;;;;;;;;;22.67;57.04;99968.94;2083350;28;19925;-47
2022/06/13 00:42:46;;;;;;;;;;;;;;;22.66;57.35;99974.59;2085425;28;20323;-45
2022/06/13 00:43:46;;;;;;;;;;;;;;;22.67;57.35;99979.06;2075087;28;19934;-44
2022/06/13 00:45:05;;;;;;;;;;;;;;;22.67;57.43;99977.16;2073177;28;19929;-48
2022/06/13 00:46:35;;;;;;;;;;;;;;;22.67;57.12;99984.56;2080672;28;19931;-45
2022/06/13 00:47:39;;;;;;;;;;;;;;;22.65;57.38;99981.97;2076170;28;20233;-46
2022/06/13 00:48:39;;;;;;;;;;;;;;;22.66;57.61;99994.69;2084267;28;20335;-45
2022/06/13 00:49:42;;;;;;;;;;;;;;;22.66;57.70;99993.81;2085641;28;19981;-45
2022/06/13 00:50:48;;;;;;;;;;;;;;;22.66;57.64;99986.47;2084809;28;19912;-45
2022/06/13 00:51:50;;;;;;;;;;;;;;;22.66;57.66;99982.81;2084388;28;19916;-44
2022/06/13 00:52:50;;;;;;;;;;;;;;;22.65;57.85;99979.22;2084208;28;20268;-45
2022/06/13 00:53:51;;;;;;;;;;;;;;;22.65;57.73;99981.97;2085383;28;20358;-46
2022/06/13 00:54:52;;;;;;;;;;;;;;;22.66;57.66;99988.31;2085490;28;19922;-45
2022/06/13 00:55:56;;;;;;;;;;;;;;;22.66;57.61;99988.31;2084420;28;19920;-45
2022/06/13 00:56:56;;;;;;;;;;;;;;;22.66;57.49;99989.19;2084505;28;19923;-45
2022/06/13 00:57:59;;;;;;;;;;;;;;;22.67;57.58;99984.56;2085665;28;19917;-45
2022/06/13 00:59:02;;;;;;;;;;;;;;;22.67;57.58;99990.06;2083521;28;19923;-46
2022/06/13 01:00:06;;;;;;;;;;;;;;;22.67;57.44;99993.66;2085362;28;19960;-44
2022/06/13 01:01:07;;;;;;;;;;;;;;;22.67;57.56;99985.41;2082393;28;19917;-48
2022/06/13 01:02:08;;;;;;;;;;;;;;;22.66;57.35;99983.72;2082813;28;20358;-46
2022/06/13 01:03:08;;;;;;;;;;;;;;;22.67;57.27;99985.41;2084035;28;19931;-45
2022/06/13 01:04:09;;;;;;;;;;;;;;;22.67;57.43;99987.31;2085635;28;20228;-47
2022/06/13 01:05:10;;;;;;;;;;;;;;;22.67;57.45;99990.91;2093639;28;19938;-45
2022/06/13 01:06:10;;;;;;;;;;;;;;;22.67;57.32;99993.66;2079024;28;19924;-46
2022/06/13 01:07:11;;;;;;;;;;;;;;;22.67;57.44;99990.91;2076679;28;19963;-45
2022/06/13 01:08:11;;;;;;;;;;;;;;;22.68;57.25;99987.16;2093726;28;20284;-46
2022/06/13 01:09:13;;;;;;;;;;;;;;;22.68;57.30;99980.75;2086096;28;19919;-47
2022/06/13 01:11:32;;;;;;;;;;;;;;;22.67;57.36;99968.06;2085337;28;19917;-49
2022/06/13 01:12:34;;;;;;;;;;;;;;;22.67;57.36;99968.94;2084140;28;19916;-48
2022/06/13 01:13:42;;;;;;;;;;;;;;;22.68;57.38;99967.03;2082686;28;19920;-45
2022/06/13 01:14:57;;;;;;;;;;;;;;;22.66;57.29;99964.47;2077852;28;20240;-45
2022/06/13 01:16:24;;;;;;;;;;;;;;;22.66;57.29;99967.22;2082413;28;19917;-44
2022/06/13 01:17:24;;;;;;;;;;;;;;;22.67;57.53;99968.94;2052589;28;20639;-45
2022/06/13 01:18:27;;;;;;;;;;;;;;;22.68;57.56;99978.03;2081343;28;19916;-44
2022/06/13 01:19:36;;;;;;;;;;;;;;;22.66;57.56;99975.47;2079179;28;20450;-45
2022/06/13 01:20:49;;;;;;;;;;;;;;;22.66;57.60;99980.97;2083616;28;19967;-46
2022/06/13 01:22:08;;;;;;;;;;;;;;;22.66;57.59;99983.72;2084060;28;20028;-45
2022/06/13 01:23:08;;;;;;;;;;;;;;;22.66;57.52;99988.31;2075873;28;19928;-45
2022/06/13 01:24:27;;;;;;;;;;;;;;;22.66;57.67;99989.19;2074343;28;19911;-46
2022/06/13 01:25:36;;;;;;;;;;;;;;;22.66;57.58;99985.56;2078752;28;19943;-46
2022/06/13 01:26:57;;;;;;;;;;;;;;;22.67;57.69;99988.16;2084650;28;19924;-45
2022/06/13 01:28:22;;;;;;;;;;;;;;;22.67;57.68;99996.41;2084830;28;19916;-45
2022/06/13 01:29:41;;;;;;;;;;;;;;;22.66;57.70;99994.69;2087802;28;19927;-48
2022/06/13 01:30:44;;;;;;;;;;;;;;;22.66;57.68;99994.69;2091830;28;19904;-46
2022/06/13 01:31:44;;;;;;;;;;;;;;;22.66;57.53;99997.44;2087016;28;19981;-45
2022/06/13 01:33:03;;;;;;;;;;;;;;;22.67;57.45;99996.41;2085098;28;19966;-48
2022/06/13 01:34:21;;;;;;;;;;;;;;;22.67;57.56;100001.91;2084243;28;19955;-47
2022/06/13 01:35:42;;;;;;;;;;;;;;;22.68;57.44;100003.63;2085953;28;19917;-45
2022/06/13 01:36:48;;;;;;;;;;;;;;;22.68;57.48;100002.75;2087219;28;20610;-45
2022/06/13 01:37:55;;;;;;;;;;;;;;;22.67;57.37;100001.91;2083692;28;19916;-45
2022/06/13 01:39:07;;;;;;;;;;;;;;;22.68;57.46;100009.13;2084365;28;20149;-46
2022/06/13 01:40:10;;;;;;;;;;;;;;;22.68;57.42;100003.63;2078364;28;19917;-47
2022/06/13 01:41:18;;;;;;;;;;;;;;;22.69;57.52;100001.72;2084384;28;19916;-45
2022/06/13 01:42:33;;;;;;;;;;;;;;;22.69;57.35;99996.25;2084177;28;20849;-45
2022/06/13 01:43:45;;;;;;;;;;;;;;;22.68;57.28;99992.63;2077806;28;19921;-45
2022/06/13 01:44:46;;;;;;;;;;;;;;;22.68;57.25;99987.16;2087036;28;19932;-46
2022/06/13 01:46:05;;;;;;;;;;;;;;;22.69;57.20;99988.00;2085337;28;20362;-45
2022/06/13 01:47:23;;;;;;;;;;;;;;;22.69;57.41;99988.00;2084459;28;20300;-45
2022/06/13 01:48:46;;;;;;;;;;;;;;;22.68;57.40;99984.41;2078773;28;19979;-46
2022/06/13 01:50:15;;;;;;;;;;;;;;;22.67;57.44;99985.41;2078731;28;19963;-44
2022/06/13 01:51:27;;;;;;;;;;;;;;;22.67;57.43;100001.91;2078672;28;20367;-45
2022/06/13 01:52:27;;;;;;;;;;;;;;;22.68;57.70;100011.88;2083088;28;19913;-45
2022/06/13 01:53:38;;;;;;;;;;;;;;;22.67;57.49;100012.88;2087310;28;19932;-45
2022/06/13 01:54:55;;;;;;;;;;;;;;;22.67;57.68;100018.38;2094773;28;19916;-46
2022/06/13 01:56:09;;;;;;;;;;;;;;;22.67;57.63;100018.38;2086081;28;19909;-46
2022/06/13 01:57:15;;;;;;;;;;;;;;;22.68;57.75;100027.47;2082517;28;19912;-46
2022/06/13 01:58:24;;;;;;;;;;;;;;;22.67;57.71;100023.88;2091096;28;20452;-49
2022/06/13 01:59:31;;;;;;;;;;;;;;;22.66;57.76;100018.53;2086858;28;19916;-48
2022/06/13 02:00:33;;;;;;;;;;;;;;;22.67;57.73;100017.53;2086205;28;19916;-45
2022/06/13 02:01:34;;;;;;;;;;;;;;;22.66;57.66;100019.44;2083433;28;19924;-45
2022/06/13 02:02:41;;;;;;;;;;;;;;;22.66;57.80;100002.94;2094242;28;19916;-45
2022/06/13 02:03:44;;;;;;;;;;;;;;;22.65;57.82;100009.44;2085192;28;19920;-46
2022/06/13 02:04:46;;;;;;;;;;;;;;;22.66;57.81;100000.19;2086902;28;19927;-46
2022/06/13 02:05:54;;;;;;;;;;;;;;;22.67;57.64;100007.38;2085878;28;19916;-47
2022/06/13 02:07:03;;;;;;;;;;;;;;;22.67;57.76;99992.81;2082570;28;19942;-47
2022/06/13 02:08:15;;;;;;;;;;;;;;;22.66;57.57;99994.69;2083820;28;19917;-48
2022/06/13 02:09:18;;;;;;;;;;;;;;;22.66;57.68;99994.69;2084451;28;19979;-46
2022/06/13 02:10:20;;;;;;;;;;;;;;;22.67;57.53;99995.53;2087755;28;19962;-49
2022/06/13 02:11:31;;;;;;;;;;;;;;;22.68;57.59;99997.25;2084062;28;19956;-47
2022/06/13 02:12:34;;;;;;;;;;;;;;;22.67;57.51;99996.41;2086464;28;19920;-46
2022/06/13 02:13:39;;;;;;;;;;;;;;;22.68;57.51;99997.25;2084502;28;19928;-46
2022/06/13 02:14:51;;;;;;;;;;;;;;;22.68;57.44;99995.38;2087809;28;19916;-45
2022/06/13 02:15:54;;;;;;;;;;;;;;;22.68;57.52;100000.88;2084429;28;19951;-47
2022/06/13 02:16:54;;;;;;;;;;;;;;;22.68;57.41;100000.88;2084240;28;19912;-47
2022/06/13 02:17:57;;;;;;;;;;;;;;;22.69;57.35;100004.47;2085734;28;20826;-47
2022/06/13 02:19:03;;;;;;;;;;;;;;;22.68;57.38;100003.63;2080324;28;20508;-48
2022/06/13 02:20:20;;;;;;;;;;;;;;;22.68;57.56;100011.88;2085680;28;20491;-46
2022/06/13 02:21:23;;;;;;;;;;;;;;;22.69;57.46;100016.31;2083688;28;19942;-46
2022/06/13 02:22:23;;;;;;;;;;;;;;;22.69;57.47;100009.97;2080753;28;19939;-48
2022/06/13 02:23:25;;;;;;;;;;;;;;;22.69;57.39;100018.22;2083085;28;19971;-46
2022/06/13 02:24:31;;;;;;;;;;;;;;;22.68;57.48;100025.59;2082872;28;19916;-47
2022/06/13 02:25:45;;;;;;;;;;;;;;;22.68;57.46;100019.22;2083835;28;19917;-47
2022/06/13 02:26:48;;;;;;;;;;;;;;;22.68;57.58;100031.09;2082830;28;20016;-50
2022/06/13 02:27:52;;;;;;;;;;;;;;;22.69;57.66;100048.44;2082730;28;20031;-47
2022/06/13 02:28:59;;;;;;;;;;;;;;;22.68;57.55;100058.59;2080500;28;20026;-48
2022/06/13 02:30:03;;;;;;;;;;;;;;;22.68;57.59;100076.94;2083911;28;20339;-48
2022/06/13 02:31:08;;;;;;;;;;;;;;;22.68;57.74;100097.03;2084129;28;19988;-47
2022/06/13 02:32:11;;;;;;;;;;;;;;;22.68;57.65;100102.53;2076550;28;19917;-46
2022/06/13 02:33:21;;;;;;;;;;;;;;;22.68;57.79;100097.03;2068335;28;19920;-46
2022/06/13 02:34:21;;;;;;;;;;;;;;;22.68;57.79;100086.06;2074996;28;19915;-47
2022/06/13 02:35:24;;;;;;;;;;;;;;;22.68;57.80;100097.03;2081775;28;19923;-47
2022/06/13 02:36:24;;;;;;;;;;;;;;;22.69;57.65;100108.88;2086902;28;20441;-47
2022/06/13 02:37:35;;;;;;;;;;;;;;;22.68;57.68;100107.16;2084551;28;20031;-47
2022/06/13 02:38:55;;;;;;;;;;;;;;;22.68;57.65;100109.91;2086626;28;19923;-47
2022/06/13 02:40:00;;;;;;;;;;;;;;;22.68;57.66;100113.53;2081902;28;19920;-46
2022/06/13 02:41:04;;;;;;;;;;;;;;;22.69;57.60;100111.63;2085731;28;19920;-45
2022/06/13 02:42:15;;;;;;;;;;;;;;;22.69;57.69;100120.72;2086450;28;19921;-46
2022/06/13 02:43:20;;;;;;;;;;;;;;;22.68;57.58;100108.03;2082073;28;20071;-50
2022/06/13 02:44:25;;;;;;;;;;;;;;;22.69;57.66;100109.75;2086712;28;20001;-47
2022/06/13 02:45:28;;;;;;;;;;;;;;;22.69;57.55;100123.47;2085369;28;19916;-46
2022/06/13 02:46:31;;;;;;;;;;;;;;;22.68;57.47;100119.03;2079566;28;19909;-45
2022/06/13 02:47:35;;;;;;;;;;;;;;;22.69;57.59;100115.22;2085009;28;19916;-48
2022/06/13 02:48:39;;;;;;;;;;;;;;;22.70;57.45;100118.84;2085515;28;19997;-49
2022/06/13 02:49:42;;;;;;;;;;;;;;;22.69;57.62;100117.97;2084856;28;19919;-46
2022/06/13 02:51:05;;;;;;;;;;;;;;;22.69;57.56;100120.72;2084794;28;19916;-46
2022/06/13 02:52:06;;;;;;;;;;;;;;;22.69;57.60;100120.72;2082495;28;19916;-46
2022/06/13 02:53:10;;;;;;;;;;;;;;;22.70;57.66;100132.56;2086264;28;19916;-47
2022/06/13 02:54:13;;;;;;;;;;;;;;;22.69;57.56;100131.72;2091570;28;19923;-45
2022/06/13 02:55:15;;;;;;;;;;;;;;;22.71;57.46;100133.41;2090018;28;20886;-46
2022/06/13 02:56:34;;;;;;;;;;;;;;;22.70;57.49;100135.31;2086427;28;19921;-46
2022/06/13 02:57:42;;;;;;;;;;;;;;;22.69;57.49;100137.22;2085068;28;19917;-48
2022/06/13 02:58:49;;;;;;;;;;;;;;;22.69;57.50;100142.72;2083184;28;20612;-46
2022/06/13 03:00:05;;;;;;;;;;;;;;;22.69;57.67;100148.22;2085615;28;20410;-47
2022/06/13 03:01:09;;;;;;;;;;;;;;;22.69;57.78;100141.88;2077421;28;19917;-49
2022/06/13 03:02:13;;;;;;;;;;;;;;;22.69;57.95;100152.84;2080702;28;20219;-48
2022/06/13 03:03:17;;;;;;;;;;;;;;;22.69;58.03;100159.19;2084389;28;19920;-45
2022/06/13 03:04:24;;;;;;;;;;;;;;;22.68;58.17;100168.47;2077936;28;19917;-46
2022/06/13 03:05:37;;;;;;;;;;;;;;;22.69;58.06;100175.69;2081159;28;20613;-48
2022/06/13 03:06:48;;;;;;;;;;;;;;;22.69;58.14;100169.34;2084858;28;19917;-45
2022/06/13 03:07:56;;;;;;;;;;;;;;;22.69;58.03;100166.59;2086847;28;19923;-46
2022/06/13 03:09:05;;;;;;;;;;;;;;;22.69;58.02;100180.31;2085760;28;20293;-46
2022/06/13 03:10:18;;;;;;;;;;;;;;;22.68;58.08;100173.97;2084909;28;19916;-47
2022/06/13 03:11:37;;;;;;;;;;;;;;;22.67;58.24;100175.00;2078800;28;20007;-48
2022/06/13 03:12:53;;;;;;;;;;;;;;;22.69;58.20;100174.84;2084395;28;20274;-46
2022/06/13 03:14:04;;;;;;;;;;;;;;;22.69;58.11;100172.94;2079710;28;20074;-46
2022/06/13 03:15:13;;;;;;;;;;;;;;;22.69;58.11;100174.84;2084826;28;19913;-45
2022/06/13 03:16:20;;;;;;;;;;;;;;;22.69;57.94;100183.94;2083909;28;19908;-45
2022/06/13 03:17:39;;;;;;;;;;;;;;;22.69;57.87;100183.94;2082964;28;20045;-47
2022/06/13 03:18:46;;;;;;;;;;;;;;;22.70;58.13;100179.28;2085642;28;19919;-49
2022/06/13 03:20:03;;;;;;;;;;;;;;;22.69;57.98;100192.16;2095223;28;19915;-47
2022/06/13 03:21:06;;;;;;;;;;;;;;;22.71;57.98;100193.88;2090508;28;19915;-47
2022/06/13 03:22:07;;;;;;;;;;;;;;;22.72;58.02;100195.59;2088741;28;20023;-47
2022/06/13 03:23:12;;;;;;;;;;;;;;;22.69;58.02;100192.16;2086071;28;20215;-46
2022/06/13 03:24:48;;;;;;;;;;;;;;;22.71;58.03;100199.38;2082737;28;19940;-46
2022/06/13 03:25:58;;;;;;;;;;;;;;;22.71;58.04;100194.75;2062198;28;19916;-47
2022/06/13 03:27:01;;;;;;;;;;;;;;;22.71;57.93;100202.13;2066321;28;19916;-45
2022/06/13 03:28:13;;;;;;;;;;;;;;;22.72;57.87;100195.59;2070164;28;19924;-48
2022/06/13 03:29:19;;;;;;;;;;;;;;;22.71;57.99;100200.25;2081256;28;19987;-46
2022/06/13 03:30:22;;;;;;;;;;;;;;;22.71;58.10;100200.25;2083808;28;19924;-47
2022/06/13 03:31:26;;;;;;;;;;;;;;;22.72;58.11;100206.59;2084085;28;19908;-47
2022/06/13 03:32:30;;;;;;;;;;;;;;;22.71;58.11;100213.09;2084009;28;20091;-46
2022/06/13 03:33:40;;;;;;;;;;;;;;;22.72;58.15;100217.59;2084533;28;20294;-46
2022/06/13 03:34:46;;;;;;;;;;;;;;;22.71;58.29;100218.59;2078118;28;19924;-47
2022/06/13 03:35:48;;;;;;;;;;;;;;;22.71;58.63;100218.59;2088913;28;19935;-45
2022/06/13 03:37:09;;;;;;;;;;;;;;;22.69;58.52;100219.66;2088269;28;19916;-46
2022/06/13 03:38:14;;;;;;;;;;;;;;;22.69;58.60;100227.88;2085209;28;20297;-45
2022/06/13 03:39:25;;;;;;;;;;;;;;;22.70;58.53;100231.50;2090375;28;19951;-46
2022/06/13 03:40:27;;;;;;;;;;;;;;;22.69;58.82;100227.03;2079312;28;20232;-45
2022/06/13 03:41:32;;;;;;;;;;;;;;;22.68;58.63;100228.94;2085559;28;19923;-46
2022/06/13 03:42:45;;;;;;;;;;;;;;;22.69;58.71;100227.03;2083479;28;19916;-46
2022/06/13 03:43:51;;;;;;;;;;;;;;;22.69;58.74;100221.53;2085668;28;20215;-47
2022/06/13 03:44:57;;;;;;;;;;;;;;;22.69;58.86;100216.91;2082266;28;19951;-46
2022/06/13 03:46:07;;;;;;;;;;;;;;;22.69;58.91;100218.78;2073250;28;19992;-47
2022/06/13 03:47:16;;;;;;;;;;;;;;;22.69;58.81;100219.66;2077176;28;19986;-46
2022/06/13 03:48:18;;;;;;;;;;;;;;;22.68;58.83;100212.44;2084437;28;19917;-46
2022/06/13 03:49:25;;;;;;;;;;;;;;;22.69;58.78;100218.78;2085806;28;20003;-45
2022/06/13 03:50:28;;;;;;;;;;;;;;;22.69;58.80;100208.66;2083977;28;20112;-46
2022/06/13 03:51:33;;;;;;;;;;;;;;;22.70;58.60;100206.75;2084617;28;19971;-46
2022/06/13 03:52:35;;;;;;;;;;;;;;;22.69;58.81;100205.91;2084929;28;19924;-45
2022/06/13 03:53:40;;;;;;;;;;;;;;;22.71;58.75;100204.88;2084296;28;19917;-46
2022/06/13 03:55:04;;;;;;;;;;;;;;;22.69;58.81;100186.69;2085609;28;19916;-46
2022/06/13 03:56:07;;;;;;;;;;;;;;;22.69;58.91;100175.69;2073030;28;19989;-45
2022/06/13 03:57:28;;;;;;;;;;;;;;;22.69;58.91;100181.19;2081956;28;19917;-46
2022/06/13 03:58:38;;;;;;;;;;;;;;;22.70;58.91;100193.03;2082061;28;20310;-48
2022/06/13 03:59:38;;;;;;;;;;;;;;;22.71;58.99;100194.75;2083512;28;19920;-46
2022/06/13 04:00:46;;;;;;;;;;;;;;;22.71;58.80;100200.25;2085594;28;20327;-45
2022/06/13 04:01:48;;;;;;;;;;;;;;;22.71;58.82;100199.38;2084656;28;19908;-46
2022/06/13 04:02:52;;;;;;;;;;;;;;;22.71;58.83;100199.38;2084468;28;19951;-46
2022/06/13 04:03:54;;;;;;;;;;;;;;;22.70;58.73;100198.50;2077472;28;19947;-47
2022/06/13 04:04:55;;;;;;;;;;;;;;;22.71;58.59;100188.38;2074226;28;19932;-46
2022/06/13 04:05:56;;;;;;;;;;;;;;;22.71;58.72;100182.88;2083574;28;19931;-47
2022/06/13 04:06:56;;;;;;;;;;;;;;;22.71;58.64;100180.13;2085375;28;19958;-45
2022/06/13 04:07:58;;;;;;;;;;;;;;;22.71;58.59;100177.38;2086786;28;20369;-48
2022/06/13 04:09:01;;;;;;;;;;;;;;;22.69;58.77;100175.69;2084321;28;19931;-45
2022/06/13 04:10:08;;;;;;;;;;;;;;;22.69;58.86;100153.69;2088523;28;20443;-47
2022/06/13 04:11:16;;;;;;;;;;;;;;;22.69;58.93;100139.97;2085991;28;19973;-47
2022/06/13 04:12:36;;;;;;;;;;;;;;;22.69;59.12;100119.88;2084081;28;19916;-45
2022/06/13 04:13:57;;;;;;;;;;;;;;;22.68;59.26;100097.03;2084495;28;19916;-45
2022/06/13 04:15:06;;;;;;;;;;;;;;;22.67;59.14;100069.72;2085548;28;19916;-45
2022/06/13 04:16:21;;;;;;;;;;;;;;;22.67;59.31;100062.34;2082220;28;20363;-45
2022/06/13 04:17:30;;;;;;;;;;;;;;;22.66;59.50;100055.16;2083373;28;19923;-48
2022/06/13 04:18:48;;;;;;;;;;;;;;;22.65;59.56;100053.41;2076493;28;20259;-46
2022/06/13 04:19:48;;;;;;;;;;;;;;;22.67;59.71;100056.00;2084551;28;19916;-46
2022/06/13 04:21:01;;;;;;;;;;;;;;;22.66;59.64;100048.75;2083152;28;19920;-48
2022/06/13 04:22:01;;;;;;;;;;;;;;;22.66;59.52;100044.16;2086559;28;20798;-46
2022/06/13 04:23:40;;;;;;;;;;;;;;;22.67;59.38;100034.88;2081235;28;20329;-46
2022/06/13 04:24:46;;;;;;;;;;;;;;;22.67;59.78;100023.03;2056892;28;19968;-47
2022/06/13 04:25:56;;;;;;;;;;;;;;;22.68;59.56;100030.22;2060527;28;19920;-48
2022/06/13 04:27:04;;;;;;;;;;;;;;;22.68;59.58;100031.09;2067724;28;19924;-48
2022/06/13 04:28:20;;;;;;;;;;;;;;;22.68;59.40;100028.34;2058604;28;19959;-47
2022/06/13 04:29:23;;;;;;;;;;;;;;;22.68;59.33;100025.59;2063207;28;20305;-48
2022/06/13 04:30:25;;;;;;;;;;;;;;;22.69;59.29;100032.81;2076678;28;19912;-46
2022/06/13 04:31:29;;;;;;;;;;;;;;;22.69;59.34;100037.44;2079453;28;20391;-45
2022/06/13 04:32:34;;;;;;;;;;;;;;;22.68;59.39;100036.59;2080887;28;20289;-47
2022/06/13 04:33:38;;;;;;;;;;;;;;;22.70;59.19;100039.16;2084262;28;19947;-47
2022/06/13 04:34:43;;;;;;;;;;;;;;;22.69;59.33;100038.31;2084145;28;19957;-46
2022/06/13 04:35:45;;;;;;;;;;;;;;;22.70;59.28;100058.38;2081898;28;19971;-45
2022/06/13 04:36:47;;;;;;;;;;;;;;;22.69;59.20;100049.28;2085642;28;20722;-46
2022/06/13 04:37:47;;;;;;;;;;;;;;;22.71;59.07;100042.75;2088263;28;19916;-47
2022/06/13 04:38:51;;;;;;;;;;;;;;;22.71;59.08;100051.88;2089234;28;19919;-47
2022/06/13 04:39:53;;;;;;;;;;;;;;;22.71;59.11;100034.50;2093646;28;19916;-48
2022/06/13 04:40:56;;;;;;;;;;;;;;;22.71;59.06;100043.63;2083154;28;19923;-46
2022/06/13 04:41:59;;;;;;;;;;;;;;;22.72;59.00;100044.47;2083920;28;20232;-47
2022/06/13 04:43:00;;;;;;;;;;;;;;;22.71;58.97;100040.00;2089933;28;20004;-47
2022/06/13 04:44:02;;;;;;;;;;;;;;;22.70;59.17;100036.41;2085780;28;19912;-46
2022/06/13 04:45:26;;;;;;;;;;;;;;;22.71;58.94;100040.88;2083829;28;19948;-49
2022/06/13 04:46:27;;;;;;;;;;;;;;;22.71;59.16;100037.25;2071796;28;20322;-46
2022/06/13 04:47:28;;;;;;;;;;;;;;;22.69;59.12;100038.31;2085616;28;20499;-45
2022/06/13 04:48:29;;;;;;;;;;;;;;;22.70;59.40;100030.91;2081866;28;19948;-46
2022/06/13 04:49:42;;;;;;;;;;;;;;;22.71;59.59;100023.50;2085082;28;20065;-46
2022/06/13 04:50:45;;;;;;;;;;;;;;;22.69;59.68;100031.94;2085422;28;20006;-47
2022/06/13 04:51:46;;;;;;;;;;;;;;;22.68;60.05;100031.09;2083107;28;20427;-46
2022/06/13 04:52:48;;;;;;;;;;;;;;;22.69;59.88;100034.69;2084632;28;19916;-46
2022/06/13 04:54:01;;;;;;;;;;;;;;;22.68;60.08;100042.09;2087858;28;20207;-50
2022/06/13 04:55:05;;;;;;;;;;;;;;;22.68;60.09;100038.47;2092802;28;20129;-49
2022/06/13 04:56:06;;;;;;;;;;;;;;;22.69;60.03;100043.78;2084105;28;19983;-46
2022/06/13 04:57:06;;;;;;;;;;;;;;;22.67;59.98;100045.84;2084838;28;19955;-46
2022/06/13 04:58:13;;;;;;;;;;;;;;;22.68;60.10;100035.72;2082715;28;19920;-46
2022/06/13 04:59:15;;;;;;;;;;;;;;;22.67;59.88;100034.88;2084268;28;20398;-47
2022/06/13 05:00:16;;;;;;;;;;;;;;;22.67;59.82;100029.38;2083707;28;20330;-46
2022/06/13 05:01:21;;;;;;;;;;;;;;;22.66;59.95;100022.16;2082876;28;19994;-46
2022/06/13 05:02:23;;;;;;;;;;;;;;;22.68;59.93;100027.47;2084669;28;20637;-47
2022/06/13 05:03:26;;;;;;;;;;;;;;;22.68;59.71;100028.34;2082783;28;20562;-46
2022/06/13 05:04:31;;;;;;;;;;;;;;;22.69;59.78;100023.72;2084218;28;19912;-47
2022/06/13 05:05:36;;;;;;;;;;;;;;;22.68;59.72;100025.59;2084989;28;20153;-46
2022/06/13 05:06:38;;;;;;;;;;;;;;;22.68;59.58;100031.09;2085013;28;20810;-45
2022/06/13 05:07:38;;;;;;;;;;;;;;;22.69;59.51;100032.81;2082861;28;19916;-45
2022/06/13 05:08:40;;;;;;;;;;;;;;;22.68;59.61;100031.09;2086845;28;19908;-47
2022/06/13 05:10:01;;;;;;;;;;;;;;;22.69;59.52;100027.31;2082996;28;19920;-47
2022/06/13 05:11:05;;;;;;;;;;;;;;;22.68;59.50;100025.59;2083398;28;19909;-46
2022/06/13 05:12:06;;;;;;;;;;;;;;;22.69;59.35;100032.81;2076903;28;20011;-45
2022/06/13 05:13:07;;;;;;;;;;;;;;;22.69;59.37;100032.81;2080010;28;19908;-49
2022/06/13 05:14:14;;;;;;;;;;;;;;;22.69;59.28;100035.56;2085174;28;20303;-47
2022/06/13 05:15:14;;;;;;;;;;;;;;;22.69;59.29;100027.31;2075672;28;19924;-45
2022/06/13 05:16:44;;;;;;;;;;;;;;;22.71;59.24;100037.25;2076659;28;19917;-45
2022/06/13 05:17:50;;;;;;;;;;;;;;;22.69;59.12;100041.03;2080659;28;20018;-48
2022/06/13 05:18:50;;;;;;;;;;;;;;;22.69;59.17;100046.53;2093176;28;20227;-46
2022/06/13 05:20:14;;;;;;;;;;;;;;;22.70;59.27;100044.66;2089931;28;20013;-47
2022/06/13 05:21:14;;;;;;;;;;;;;;;22.71;59.21;100061.97;2063787;28;20052;-47
2022/06/13 05:22:14;;;;;;;;;;;;;;;22.69;59.01;100065.78;2090560;28;19923;-47
2022/06/13 05:23:14;;;;;;;;;;;;;;;22.69;59.09;100052.03;2089657;28;19927;-46
2022/06/13 05:24:24;;;;;;;;;;;;;;;22.69;59.14;100060.28;2090180;28;19936;-46
2022/06/13 05:25:24;;;;;;;;;;;;;;;22.69;59.41;100054.78;2093816;28;19919;-46
2022/06/13 05:26:29;;;;;;;;;;;;;;;22.69;59.53;100060.28;2089754;28;20333;-50
2022/06/13 05:27:29;;;;;;;;;;;;;;;22.69;59.89;100063.03;2090256;28;19912;-47
2022/06/13 05:28:30;;;;;;;;;;;;;;;22.69;59.92;100049.28;2076197;28;20354;-48
2022/06/13 05:29:31;;;;;;;;;;;;;;;22.68;59.78;100055.84;2078399;28;19920;-47
2022/06/13 05:30:31;;;;;;;;;;;;;;;22.68;59.95;100053.09;2078071;28;19917;-46
2022/06/13 05:31:32;;;;;;;;;;;;;;;22.68;59.93;100053.09;2082446;28;19940;-46
2022/06/13 05:32:32;;;;;;;;;;;;;;;22.68;59.78;100050.34;2082228;28;20036;-47
2022/06/13 05:33:34;;;;;;;;;;;;;;;22.67;59.85;100062.34;2084930;28;20010;-48
2022/06/13 05:34:37;;;;;;;;;;;;;;;22.67;59.78;100067.84;2075951;28;19913;-45
2022/06/13 05:35:43;;;;;;;;;;;;;;;22.68;59.78;100063.19;2078679;28;20219;-46
2022/06/13 05:36:43;;;;;;;;;;;;;;;22.68;59.66;100066.81;2086039;28;19923;-45
2022/06/13 05:37:43;;;;;;;;;;;;;;;22.68;59.78;100066.81;2080131;28;19999;-46
2022/06/13 05:38:46;;;;;;;;;;;;;;;22.68;59.72;100069.56;2084187;28;19909;-49
2022/06/13 05:39:46;;;;;;;;;;;;;;;22.69;59.82;100064.94;2076642;28;19924;-47
2022/06/13 05:40:46;;;;;;;;;;;;;;;22.68;59.71;100069.56;2080650;28;19923;-46
2022/06/13 05:41:47;;;;;;;;;;;;;;;22.68;59.65;100069.56;2076568;28;20011;-45